createdAt,value
2023-03-21T00:01:04.010Z,78.59
2023-03-21T00:03:35.530Z,78.65
2023-03-21T00:06:07.898Z,78.93
2023-03-21T00:08:36.285Z,78.64
2023-03-21T00:11:08.217Z,78.31
2023-03-21T00:13:38.849Z,78.77
2023-03-21T00:16:19.657Z,78.61
2023-03-21T00:18:55.144Z,78.96
2023-03-21T00:24:16.849Z,78.52
2023-03-21T00:26:44.934Z,78.71
2023-03-21T00:29:12.731Z,78.34
2023-03-21T00:31:43.877Z,78.54
2023-03-21T00:36:41.054Z,78.29
2023-03-21T00:39:09.146Z,78.84
2023-03-21T00:41:44.555Z,79.23
2023-03-21T00:44:16.155Z,79.68
2023-03-21T00:46:57.092Z,79.19
2023-03-21T00:49:34.247Z,78.91
2023-03-21T00:52:15.242Z,78.91
2023-03-21T00:54:44.412Z,78.63
2023-03-21T00:57:12.479Z,78.77
2023-03-21T00:59:40.902Z,78.47
2023-03-21T01:02:23.449Z,78.47
2023-03-21T01:04:51.898Z,78.37
2023-03-21T01:07:19.978Z,78.46
2023-03-21T01:09:47.857Z,78.31
2023-03-21T01:12:17.130Z,77.91
2023-03-21T01:14:45.542Z,78.02
2023-03-21T01:17:13.441Z,78.08
2023-03-21T01:19:51.711Z,78.04
2023-03-21T01:22:20.547Z,78.20
2023-03-21T01:24:55.587Z,78.27
2023-03-21T01:27:29.435Z,78.62
2023-03-21T01:29:57.831Z,78.66
2023-03-21T01:32:26.759Z,78.70
2023-03-21T01:34:54.831Z,78.55
2023-03-21T01:37:24.042Z,78.45
2023-03-21T01:39:52.005Z,78.34
2023-03-21T01:42:20.445Z,78.24
2023-03-21T01:45:00.108Z,78.15
2023-03-21T01:47:37.782Z,77.85
2023-03-21T01:50:17.543Z,77.91
2023-03-21T01:53:08.545Z,77.90
2023-03-21T01:55:38.261Z,77.57
2023-03-21T01:58:18.449Z,77.90
2023-03-21T02:01:01.522Z,77.57
2023-03-21T02:03:50.871Z,77.68
2023-03-21T02:07:12.962Z,77.40
2023-03-21T02:09:47.688Z,77.38
2023-03-21T02:12:26.416Z,77.35
2023-03-21T02:14:57.104Z,77.04
2023-03-21T02:17:49.491Z,77.11
2023-03-21T02:20:42.292Z,77.16
2023-03-21T02:23:18.279Z,77.21
2023-03-21T02:26:08.706Z,77.16
2023-03-21T02:29:17.667Z,76.81
2023-03-21T02:31:45.937Z,76.75
2023-03-21T02:34:36.518Z,76.76
2023-03-21T02:37:12.897Z,76.72
2023-03-21T02:39:48.910Z,76.91
2023-03-21T02:42:37.890Z,76.88
2023-03-21T02:45:20.117Z,77.01
2023-03-21T02:48:05.102Z,77.08
2023-03-21T02:50:46.824Z,76.72
2023-03-21T02:53:17.226Z,76.23
2023-03-21T02:55:46.653Z,76.47
2023-03-21T02:58:20.537Z,76.34
2023-03-21T03:00:55.619Z,76.57
2023-03-21T03:03:47.968Z,76.31
2023-03-21T03:06:49.142Z,76.47
2023-03-21T03:09:42.385Z,76.33
2023-03-21T03:12:19.737Z,76.11
2023-03-21T03:15:08.588Z,76.12
2023-03-21T03:18:07.537Z,76.16
2023-03-21T03:20:44.709Z,76.31
2023-03-21T03:23:26.283Z,76.58
2023-03-21T03:26:05.332Z,76.75
2023-03-21T03:28:37.330Z,76.64
2023-03-21T03:31:13.102Z,76.82
2023-03-21T03:33:46.976Z,76.95
2023-03-21T03:36:31.200Z,76.30
2023-03-21T03:39:05.076Z,76.40
2023-03-21T03:42:02.971Z,76.36
2023-03-21T03:44:28.872Z,76.29
2023-03-21T03:47:05.098Z,76.63
2023-03-21T03:49:38.939Z,76.95
2023-03-21T03:52:36.734Z,77.18
2023-03-21T03:55:14.901Z,76.85
2023-03-21T03:57:44.201Z,76.73
2023-03-21T04:00:14.313Z,76.83
2023-03-21T04:02:53.294Z,76.59
2023-03-21T04:05:25.351Z,76.59
2023-03-21T04:07:55.086Z,76.72
2023-03-21T04:10:33.693Z,76.47
2023-03-21T04:13:01.934Z,77.00
2023-03-21T04:15:46.001Z,77.00
2023-03-21T04:18:18.254Z,76.84
2023-03-21T04:20:49.576Z,77.16
2023-03-21T04:23:20.691Z,76.91
2023-03-21T04:25:56.713Z,77.16
2023-03-21T04:28:36.630Z,77.47
2023-03-21T04:31:26.460Z,77.34
2023-03-21T04:34:10.198Z,77.67
2023-03-21T04:36:44.875Z,77.60
2023-03-21T04:39:14.583Z,76.95
2023-03-21T04:41:46.901Z,77.21
2023-03-21T04:44:22.962Z,77.37
2023-03-21T04:46:52.264Z,77.23
2023-03-21T04:49:21.679Z,77.45
2023-03-21T04:51:49.825Z,77.39
2023-03-21T04:54:21.410Z,77.72
2023-03-21T04:56:49.317Z,78.01
2023-03-21T04:59:17.506Z,77.94
2023-03-21T05:01:45.859Z,77.53
2023-03-21T05:04:14.744Z,77.65
2023-03-21T05:06:43.035Z,77.71
2023-03-21T05:09:11.028Z,77.90
2023-03-21T05:11:40.610Z,77.40
2023-03-21T05:14:12.112Z,77.25
2023-03-21T05:16:49.328Z,77.41
2023-03-21T05:19:19.304Z,77.36
2023-03-21T05:21:49.264Z,76.73
2023-03-21T05:24:24.201Z,76.75
2023-03-21T05:26:56.546Z,76.86
2023-03-21T05:29:30.545Z,76.57
2023-03-21T05:32:02.383Z,76.37
2023-03-21T05:34:32.323Z,76.32
2023-03-21T05:37:02.252Z,76.45
2023-03-21T05:39:44.108Z,76.15
2023-03-21T05:42:19.202Z,76.02
2023-03-21T05:44:49.602Z,75.97
2023-03-21T05:47:24.507Z,76.32
2023-03-21T05:49:55.016Z,75.75
2023-03-21T05:52:25.576Z,76.06
2023-03-21T05:54:57.701Z,75.70
2023-03-21T05:57:39.453Z,75.59
2023-03-21T06:00:10.695Z,74.99
2023-03-21T06:03:04.736Z,75.18
2023-03-21T06:05:58.708Z,75.14
2023-03-21T06:08:35.754Z,74.61
2023-03-21T06:11:24.754Z,74.56
2023-03-21T06:13:58.712Z,75.10
2023-03-21T06:16:27.040Z,73.62
2023-03-21T06:18:57.220Z,73.84
2023-03-21T06:21:38.481Z,73.41
2023-03-21T06:24:11.215Z,74.66
2023-03-21T06:26:45.089Z,73.58
2023-03-21T06:29:14.320Z,73.78
2023-03-21T06:31:51.607Z,72.71
2023-03-21T06:34:20.974Z,72.18
2023-03-21T06:36:52.527Z,71.83
2023-03-21T06:39:22.522Z,72.54
2023-03-21T06:41:50.848Z,72.46
2023-03-21T06:44:20.143Z,71.47
2023-03-21T06:46:56.982Z,71.23
2023-03-21T06:49:26.732Z,71.02
2023-03-21T06:51:57.766Z,70.83
2023-03-21T06:54:27.083Z,70.67
2023-03-21T06:57:05.558Z,71.24
2023-03-21T06:59:36.727Z,71.59
2023-03-21T07:02:21.027Z,70.44
2023-03-21T07:04:59.785Z,70.36
2023-03-21T07:07:31.026Z,71.64
2023-03-21T07:09:59.585Z,70.94
2023-03-21T07:12:36.090Z,70.51
2023-03-21T07:15:16.871Z,70.66
2023-03-21T07:17:47.815Z,71.18
2023-03-21T07:20:16.393Z,71.14
2023-03-21T07:22:44.705Z,70.77
2023-03-21T07:25:21.137Z,71.07
2023-03-21T07:27:49.794Z,70.93
2023-03-21T07:30:18.823Z,70.78
2023-03-21T07:32:48.286Z,70.95
2023-03-21T07:35:18.083Z,70.66
2023-03-21T07:37:51.960Z,70.56
2023-03-21T07:40:20.486Z,70.68
2023-03-21T07:42:50.652Z,70.49
2023-03-21T07:45:34.257Z,71.55
2023-03-21T07:48:02.606Z,72.10
2023-03-21T07:50:35.179Z,71.41
2023-03-21T07:53:06.585Z,71.42
2023-03-21T07:55:38.183Z,71.72
2023-03-21T07:58:11.115Z,71.49
2023-03-21T08:00:41.239Z,72.64
2023-03-21T08:03:10.621Z,71.77
2023-03-21T08:05:41.633Z,71.55
2023-03-21T08:08:10.881Z,71.83
2023-03-21T08:10:38.853Z,71.51
2023-03-21T08:13:09.713Z,71.65
2023-03-21T08:15:44.143Z,71.92
2023-03-21T08:18:12.843Z,70.84
2023-03-21T08:20:43.719Z,70.96
2023-03-21T08:23:18.960Z,70.63
2023-03-21T08:25:47.569Z,70.39
2023-03-21T08:28:16.231Z,69.32
2023-03-21T08:30:44.226Z,68.83
2023-03-21T08:33:13.618Z,69.06
2023-03-21T08:35:47.130Z,68.59
2023-03-21T08:38:15.644Z,68.31
2023-03-21T08:40:43.937Z,67.62
2023-03-21T08:43:15.197Z,69.02
2023-03-21T08:45:43.932Z,68.69
2023-03-21T08:48:20.394Z,68.34
2023-03-21T08:50:50.473Z,68.22
2023-03-21T08:53:18.385Z,67.93
2023-03-21T08:55:47.044Z,67.50
2023-03-21T08:58:16.251Z,66.69
2023-03-21T09:00:46.706Z,66.83
2023-03-21T09:03:14.962Z,66.27
2023-03-21T09:05:46.296Z,66.41
2023-03-21T09:08:14.388Z,64.91
2023-03-21T09:10:43.438Z,65.84
2023-03-21T09:13:19.432Z,64.79
2023-03-21T09:15:48.324Z,63.50
2023-03-21T09:18:36.535Z,63.77
2023-03-21T09:21:13.853Z,63.06
2023-03-21T09:23:42.824Z,63.31
2023-03-21T09:26:11.571Z,62.77
2023-03-21T09:28:40.954Z,62.58
2023-03-21T09:31:12.647Z,63.05
2023-03-21T09:33:42.120Z,62.21
2023-03-21T09:36:14.829Z,62.09
2023-03-21T09:38:47.163Z,61.51
2023-03-21T09:41:53.141Z,60.66
2023-03-21T09:44:45.686Z,59.33
2023-03-21T09:47:29.515Z,59.02
2023-03-21T09:50:18.051Z,58.96
2023-03-21T09:55:50.548Z,58.41
2023-03-21T09:58:55.180Z,57.78
2023-03-21T10:01:31.246Z,57.69
2023-03-21T10:04:06.161Z,56.76
2023-03-21T10:06:41.556Z,57.02
2023-03-21T10:09:22.992Z,55.66
2023-03-21T10:12:19.977Z,55.42
2023-03-21T10:14:52.232Z,55.40
2023-03-21T10:17:42.056Z,55.28
2023-03-21T10:20:25.179Z,55.92
2023-03-21T10:22:56.463Z,56.77
2023-03-21T10:25:32.794Z,55.99
2023-03-21T10:28:04.791Z,55.38
2023-03-21T10:30:37.579Z,56.37
2023-03-21T10:33:10.278Z,56.28
2023-03-21T10:35:40.636Z,55.64
2023-03-21T10:38:13.498Z,55.89
2023-03-21T10:40:41.211Z,54.86
2023-03-21T10:43:28.409Z,54.18
2023-03-21T10:45:58.417Z,54.90
2023-03-21T10:49:10.745Z,54.98
2023-03-21T10:51:39.496Z,54.59
2023-03-21T10:54:13.671Z,53.76
2023-03-21T10:56:46.063Z,53.61
2023-03-21T10:59:20.095Z,54.55
2023-03-21T11:01:52.529Z,54.53
2023-03-21T11:04:21.028Z,54.46
2023-03-21T11:07:02.603Z,54.87
2023-03-21T11:09:52.516Z,53.61
2023-03-21T11:12:37.550Z,53.84
2023-03-21T11:15:40.279Z,53.19
2023-03-21T11:18:20.611Z,53.27
2023-03-21T11:20:56.221Z,54.50
2023-03-21T11:23:30.847Z,53.08
2023-03-21T11:25:59.557Z,54.16
2023-03-21T11:28:34.091Z,52.96
2023-03-21T11:31:05.390Z,52.45
2023-03-21T11:33:36.732Z,51.53
2023-03-21T11:36:07.382Z,51.35
2023-03-21T11:38:39.003Z,50.55
2023-03-21T11:41:07.160Z,50.32
2023-03-21T11:43:38.986Z,50.89
2023-03-21T11:46:09.166Z,50.63
2023-03-21T11:48:40.848Z,49.75
2023-03-21T11:51:18.948Z,50.63
2023-03-21T11:53:49.055Z,49.90
2023-03-21T11:56:35.021Z,48.77
2023-03-21T11:59:26.578Z,50.54
2023-03-21T12:02:01.010Z,50.18
2023-03-21T12:05:01.732Z,49.98
2023-03-21T12:08:20.326Z,48.83
2023-03-21T12:10:54.162Z,50.02
2023-03-21T12:13:58.225Z,48.90
2023-03-21T12:16:38.217Z,48.39
2023-03-21T12:19:14.289Z,48.21
2023-03-21T12:22:03.019Z,47.66
2023-03-21T12:24:57.759Z,47.83
2023-03-21T12:27:34.246Z,50.04
2023-03-21T12:30:16.535Z,49.57
2023-03-21T12:32:50.161Z,49.33
2023-03-21T12:36:02.948Z,48.21
2023-03-21T12:38:37.211Z,47.62
2023-03-21T12:41:44.105Z,45.83
2023-03-21T12:44:18.405Z,44.18
2023-03-21T12:46:52.997Z,45.77
2023-03-21T12:49:23.749Z,44.93
2023-03-21T12:51:53.792Z,44.58
2023-03-21T12:54:28.435Z,45.39
2023-03-21T12:57:02.368Z,45.06
2023-03-21T13:00:10.880Z,44.22
2023-03-21T13:02:41.679Z,44.74
2023-03-21T13:05:32.422Z,43.60
2023-03-21T13:08:04.712Z,43.80
2023-03-21T13:10:32.553Z,44.39
2023-03-21T13:13:24.657Z,45.01
2023-03-21T13:16:18.771Z,44.88
2023-03-21T13:19:24.009Z,45.60
2023-03-21T13:22:03.285Z,45.63
2023-03-21T13:24:48.744Z,44.79
2023-03-21T13:27:31.478Z,44.43
2023-03-21T13:30:07.114Z,44.84
2023-03-21T13:32:38.639Z,44.44
2023-03-21T13:35:12.863Z,42.00
2023-03-21T13:37:43.619Z,43.12
2023-03-21T13:40:22.526Z,42.39
2023-03-21T13:42:59.708Z,42.61
2023-03-21T13:45:33.060Z,43.50
2023-03-21T13:48:06.213Z,42.76
2023-03-21T13:50:36.725Z,44.14
2023-03-21T13:53:16.497Z,43.61
2023-03-21T13:55:48.211Z,43.56
2023-03-21T13:58:23.801Z,40.58
2023-03-21T14:01:17.494Z,40.87
2023-03-21T14:03:46.807Z,39.52
2023-03-21T14:06:15.258Z,39.17
2023-03-21T14:08:46.038Z,39.17
2023-03-21T14:11:17.330Z,39.03
2023-03-21T14:13:51.289Z,39.51
2023-03-21T14:16:19.390Z,38.73
2023-03-21T14:18:56.433Z,38.40
2023-03-21T14:21:30.523Z,38.55
2023-03-21T14:23:59.996Z,37.47
2023-03-21T14:26:41.946Z,37.28
2023-03-21T14:29:25.165Z,37.57
2023-03-21T14:31:55.655Z,37.60
2023-03-21T14:34:24.829Z,37.92
2023-03-21T14:36:58.198Z,38.57
2023-03-21T14:39:31.212Z,39.98
2023-03-21T14:42:07.295Z,40.20
2023-03-21T14:44:54.506Z,41.55
2023-03-21T14:47:24.173Z,41.79
2023-03-21T14:49:51.998Z,42.86
2023-03-21T14:52:24.446Z,43.60
2023-03-21T14:54:52.169Z,43.39
2023-03-21T14:57:22.154Z,43.60
2023-03-21T14:59:52.239Z,44.34
2023-03-21T15:02:25.559Z,44.57
2023-03-21T15:04:56.637Z,45.51
2023-03-21T15:07:29.814Z,46.55
2023-03-21T15:10:01.022Z,46.21
2023-03-21T15:12:35.014Z,47.29
2023-03-21T15:15:02.994Z,46.74
2023-03-21T15:17:31.728Z,47.15
2023-03-21T15:19:59.321Z,47.51
2023-03-21T15:22:38.763Z,47.63
2023-03-21T15:25:08.410Z,48.13
2023-03-21T15:27:40.852Z,49.39
2023-03-21T15:30:26.500Z,49.83
2023-03-21T15:32:56.731Z,50.73
2023-03-21T15:35:32.013Z,50.97
2023-03-21T15:37:59.691Z,51.70
2023-03-21T15:40:31.798Z,51.90
2023-03-21T15:43:16.266Z,53.13
2023-03-21T15:45:56.122Z,52.71
2023-03-21T15:48:28.317Z,53.66
2023-03-21T15:50:56.163Z,55.14
2023-03-21T15:53:24.263Z,55.35
2023-03-21T15:55:57.299Z,55.44
2023-03-21T15:58:34.756Z,56.16
2023-03-21T16:01:08.235Z,56.86
2023-03-21T16:03:37.724Z,57.13
2023-03-21T16:06:15.509Z,57.10
2023-03-21T16:08:53.442Z,57.58
2023-03-21T16:11:27.244Z,58.02
2023-03-21T16:13:55.864Z,58.04
2023-03-21T16:16:25.152Z,58.18
2023-03-21T16:19:02.828Z,58.93
2023-03-21T16:21:31.699Z,59.08
2023-03-21T16:23:59.262Z,58.98
2023-03-21T16:26:31.618Z,59.26
2023-03-21T16:28:59.353Z,59.54
2023-03-21T16:31:31.496Z,59.90
2023-03-21T16:34:00.011Z,59.72
2023-03-21T16:36:32.936Z,60.16
2023-03-21T16:39:02.320Z,60.73
2023-03-21T16:41:30.198Z,60.68
2023-03-21T16:43:57.727Z,60.44
2023-03-21T16:46:26.374Z,60.81
2023-03-21T16:48:55.656Z,61.40
2023-03-21T16:51:32.178Z,60.83
2023-03-21T16:53:59.839Z,60.90
2023-03-21T16:56:48.094Z,60.74
2023-03-21T16:59:15.702Z,61.21
2023-03-21T17:01:46.309Z,61.22
2023-03-21T17:04:14.965Z,61.10
2023-03-21T17:06:47.661Z,61.19
2023-03-21T17:09:16.102Z,61.35
2023-03-21T17:11:52.215Z,61.48
2023-03-21T17:14:21.787Z,61.69
2023-03-21T17:16:49.459Z,62.08
2023-03-21T17:19:19.247Z,62.00
2023-03-21T17:21:47.569Z,62.91
2023-03-21T17:24:15.808Z,62.68
2023-03-21T17:26:43.838Z,62.60
2023-03-21T17:29:13.463Z,62.42
2023-03-21T17:31:41.321Z,62.46
2023-03-21T17:34:09.904Z,62.30
2023-03-21T17:36:38.976Z,62.43
2023-03-21T17:39:09.061Z,62.83
2023-03-21T17:41:37.074Z,62.53
2023-03-21T17:44:04.899Z,62.28
2023-03-21T17:46:36.913Z,62.14
2023-03-21T17:49:05.478Z,62.20
2023-03-21T17:51:33.965Z,61.70
2023-03-21T17:54:01.697Z,61.93
2023-03-21T17:56:31.926Z,62.00
2023-03-21T17:59:03.823Z,62.42
2023-03-21T18:01:33.066Z,62.23
2023-03-21T18:04:03.043Z,62.25
2023-03-21T18:06:30.904Z,61.89
2023-03-21T18:08:59.637Z,62.35
2023-03-21T18:11:28.222Z,62.54
2023-03-21T18:14:09.875Z,62.33
2023-03-21T18:16:41.949Z,62.91
2023-03-21T18:19:13.595Z,63.10
2023-03-21T18:21:45.511Z,63.08
2023-03-21T18:24:14.182Z,63.36
2023-03-21T18:26:43.063Z,62.96
2023-03-21T18:32:07.821Z,63.43
2023-03-21T18:34:37.690Z,63.18
2023-03-21T18:37:09.331Z,63.10
2023-03-21T18:39:38.531Z,63.06
2023-03-21T18:42:06.941Z,62.78
2023-03-21T18:44:43.713Z,63.42
2023-03-21T18:47:12.701Z,63.34
2023-03-21T18:52:30.281Z,63.05
2023-03-21T18:54:58.826Z,62.95
2023-03-21T18:57:36.376Z,62.77
2023-03-21T19:00:14.867Z,62.66
2023-03-21T19:02:48.482Z,62.62
2023-03-21T19:05:23.257Z,62.61
2023-03-21T19:07:53.707Z,62.96
2023-03-21T19:10:22.825Z,63.10
2023-03-21T19:12:55.018Z,63.60
2023-03-21T19:15:25.206Z,63.67
2023-03-21T19:20:47.748Z,63.52
2023-03-21T19:23:18.846Z,63.84
2023-03-21T19:25:47.868Z,63.97
2023-03-21T19:28:17.880Z,64.17
2023-03-21T19:30:50.246Z,64.23
2023-03-21T19:33:24.882Z,64.82
2023-03-21T19:36:10.748Z,64.79
2023-03-21T19:38:41.130Z,64.58
2023-03-21T19:41:10.381Z,64.80
2023-03-21T19:43:40.146Z,65.01
2023-03-21T19:46:09.373Z,65.32
2023-03-21T19:48:38.634Z,65.36
2023-03-21T19:51:26.725Z,65.60
2023-03-21T19:53:56.572Z,66.13
2023-03-21T19:56:27.076Z,65.96
2023-03-21T19:58:57.061Z,66.08
2023-03-21T20:01:25.307Z,66.44
2023-03-21T20:03:56.913Z,66.49
2023-03-21T20:06:29.366Z,66.53
2023-03-21T20:09:41.431Z,67.16
2023-03-21T20:11:47.989Z,67.43
2023-03-21T20:14:17.482Z,67.78
2023-03-21T20:16:45.297Z,68.25
2023-03-21T20:19:16.415Z,68.18
2023-03-21T20:21:53.077Z,68.73
2023-03-21T20:24:28.552Z,68.86
2023-03-21T20:26:57.470Z,69.20
2023-03-21T20:30:07.408Z,69.43
2023-03-21T20:32:14.860Z,69.80
2023-03-21T20:34:44.550Z,69.65
2023-03-21T20:37:13.384Z,69.78
2023-03-21T20:39:41.629Z,69.53
2023-03-21T20:42:09.785Z,70.14
2023-03-21T20:44:57.776Z,70.54
2023-03-21T20:47:26.582Z,70.38
2023-03-21T20:50:00.602Z,70.48
2023-03-21T20:52:57.560Z,70.67
2023-03-21T20:55:19.079Z,71.10
2023-03-21T20:57:48.787Z,71.60
2023-03-21T21:00:18.546Z,71.39
2023-03-21T21:02:50.859Z,71.79
2023-03-21T21:05:35.708Z,72.12
2023-03-21T21:08:05.504Z,72.50
2023-03-21T21:10:35.050Z,72.31
2023-03-21T21:13:08.593Z,73.07
2023-03-21T21:15:37.789Z,72.70
2023-03-21T21:18:07.853Z,72.82
2023-03-21T21:20:37.691Z,72.29
2023-03-21T21:23:09.812Z,72.14
2023-03-21T21:25:40.641Z,72.53
2023-03-21T21:28:09.868Z,72.84
2023-03-21T21:30:42.095Z,72.96
2023-03-21T21:33:10.713Z,72.95
2023-03-21T21:35:39.177Z,73.04
2023-03-21T21:38:07.428Z,73.05
2023-03-21T21:40:36.709Z,73.09
2023-03-21T21:43:08.118Z,73.05
2023-03-21T21:45:37.294Z,73.94
2023-03-21T21:48:05.804Z,73.85
2023-03-21T21:50:34.315Z,74.24
2023-03-21T21:53:04.416Z,73.87
2023-03-21T21:55:34.724Z,74.01
2023-03-21T21:58:04.256Z,74.44
2023-03-21T22:00:33.053Z,74.44
2023-03-21T22:03:01.554Z,74.20
2023-03-21T22:05:30.689Z,73.93
2023-03-21T22:08:04.552Z,74.19
2023-03-21T22:10:32.980Z,74.62
2023-03-21T22:13:01.712Z,74.75
2023-03-21T22:15:29.818Z,74.50
2023-03-21T22:17:58.901Z,74.37
2023-03-21T22:20:27.092Z,74.08
2023-03-21T22:23:03.026Z,74.08
2023-03-21T22:25:33.358Z,74.04
2023-03-21T22:28:01.436Z,73.92
2023-03-21T22:30:29.281Z,73.73
2023-03-21T22:33:08.973Z,73.50
2023-03-21T22:35:42.831Z,73.47
2023-03-21T22:38:11.466Z,73.66
2023-03-21T22:40:39.938Z,73.61
2023-03-21T22:43:09.214Z,73.49
2023-03-21T22:45:37.982Z,73.79
2023-03-21T22:48:06.556Z,73.68
2023-03-21T22:50:36.527Z,73.73
2023-03-21T22:53:04.488Z,73.52
2023-03-21T22:55:32.380Z,73.55
2023-03-21T22:58:00.680Z,73.68
2023-03-21T23:00:29.118Z,73.81
2023-03-21T23:02:57.499Z,74.04
2023-03-21T23:05:25.404Z,73.87
2023-03-21T23:07:59.757Z,73.91
2023-03-21T23:10:29.298Z,73.50
2023-03-21T23:12:59.282Z,73.95
2023-03-21T23:15:32.946Z,74.43
2023-03-21T23:18:06.520Z,74.46
2023-03-21T23:20:35.484Z,74.63
2023-03-21T23:23:03.884Z,74.86
2023-03-21T23:25:33.959Z,74.73
2023-03-21T23:28:02.986Z,74.56
2023-03-21T23:30:31.332Z,74.42
2023-03-21T23:32:59.474Z,74.25
2023-03-21T23:35:29.074Z,74.04
2023-03-21T23:37:57.132Z,73.90
2023-03-21T23:40:25.686Z,73.97
2023-03-21T23:42:53.964Z,74.00
2023-03-21T23:45:22.332Z,73.88
2023-03-21T23:47:51.675Z,74.19
2023-03-21T23:50:30.193Z,74.16
2023-03-21T23:53:05.975Z,74.18
2023-03-21T23:55:37.988Z,74.01
2023-03-21T23:58:09.555Z,74.24
